Terminal Aerodrome Forecast
Issued by NWS Charleston, WV

Current Version | Previous Version | Text Only | Print | Product List | Glossary Off
Versions: 1 2 3 4 5 6 7 8 9 10 11 12 13 14 15 16 17 18 19 20 21 22 23 24 25 26 27 28 29 30

000
FTUS41 KRLX 220832 AAA
TAFBKW
TAF AMD
KBKW 220832Z 2209/2306 16005KT P6SM FEW250
     FM221400 24007KT P6SM SCT060
     FM221900 26010G16KT P6SM VCTS BKN050CB
     FM230100 26008KT 2SM +TSRA OVC025CB
     FM230400 26006KT 4SM SHRA VCTS OVC025CB=

USA.gov is the U.S. government's official web portal to all federal, state and local government web resources and services.